Time;durP1;ratioP1;P1;durP2;ratioP2;P2;SDS_P1;SDS_P2;PMS_P1;PMS_P2;Temp;Humidity;BMP_temperature;BMP_pressure;BME280_temperature;BME280_humidity;BME280_pressure;Samples;Min_cycle;Max_cycle;Signal;HPM_P1;HPM_P2
2023/01/22 00:01:32;;;;;;;15.73;10.87;;;8.50;1.00;;;;;;5075535;28;20035;-60
2023/01/22 00:03:58;;;;;;;12.67;10.33;;;8.50;1.00;;;;;;5075490;28;20139;-60
2023/01/22 00:06:25;;;;;;;14.17;10.43;;;8.50;1.00;;;;;;5075178;28;20040;-61
2023/01/22 00:08:51;;;;;;;12.43;10.17;;;8.50;1.00;;;;;;5075406;28;20027;-61
2023/01/22 00:11:18;;;;;;;11.20;9.73;;;8.40;1.00;;;;;;5075504;28;20024;-60
2023/01/22 00:13:44;;;;;;;14.00;10.00;;;8.50;1.00;;;;;;5075222;28;20016;-60
2023/01/22 00:16:13;;;;;;;13.27;10.47;;;8.40;1.00;;;;;;5075202;28;20024;-60
2023/01/22 00:18:39;;;;;;;15.20;11.83;;;8.40;1.00;;;;;;5075393;28;20028;-60
2023/01/22 00:21:05;;;;;;;14.07;11.23;;;8.30;1.00;;;;;;5075366;28;20417;-60
2023/01/22 00:23:31;;;;;;;17.33;12.73;;;8.20;1.00;;;;;;5075155;28;20373;-60
2023/01/22 00:26:10;;;;;;;16.90;12.30;;;8.20;1.00;;;;;;5075039;28;20036;-60
2023/01/22 00:28:37;;;;;;;17.40;12.17;;;8.30;1.00;;;;;;5061392;28;20012;-60
2023/01/22 00:31:04;;;;;;;14.97;12.43;;;8.30;1.00;;;;;;5073577;28;20031;-59
2023/01/22 00:33:31;;;;;;;17.97;11.90;;;8.20;1.00;;;;;;5075006;28;20103;-59
2023/01/22 00:36:03;;;;;;;16.80;11.13;;;8.20;1.00;;;;;;5074825;28;20033;-59
2023/01/22 00:38:29;;;;;;;18.07;12.07;;;8.10;1.00;;;;;;5074997;28;20089;-60
2023/01/22 00:40:54;;;;;;;17.60;11.03;;;7.90;1.00;;;;;;5074151;28;20501;-60
2023/01/22 00:43:20;;;;;;;16.87;11.40;;;7.90;1.00;;;;;;5074581;28;20028;-60
2023/01/22 00:45:45;;;;;;;17.57;11.57;;;8.00;1.00;;;;;;5074776;28;20466;-60
2023/01/22 00:48:11;;;;;;;16.60;11.20;;;8.10;1.00;;;;;;5074932;28;20035;-60
2023/01/22 00:50:36;;;;;;;14.00;10.80;;;8.10;1.00;;;;;;5074552;28;20085;-61
2023/01/22 00:53:02;;;;;;;16.53;10.90;;;8.00;1.00;;;;;;5074837;28;20032;-59
2023/01/22 00:55:29;;;;;;;16.10;11.50;;;8.10;1.00;;;;;;5073892;28;20385;-59
2023/01/22 00:57:54;;;;;;;15.27;11.13;;;8.00;1.00;;;;;;5074661;28;20063;-60
2023/01/22 01:00:21;;;;;;;16.47;11.20;;;8.10;1.00;;;;;;5074664;28;20052;-59
2023/01/22 01:05:31;;;;;;;12.23;10.25;;;8.10;1.00;;;;;;5073703;28;20498;-60
2023/01/22 01:07:57;;;;;;;16.37;11.30;;;8.20;1.00;;;;;;5074615;28;20025;-60
2023/01/22 01:10:22;;;;;;;14.23;10.27;;;8.10;1.00;;;;;;5074394;28;20079;-60
2023/01/22 01:12:48;;;;;;;15.67;10.50;;;8.20;1.00;;;;;;5073408;28;20059;-60
2023/01/22 01:15:14;;;;;;;15.77;10.57;;;8.10;1.00;;;;;;5074395;28;20029;-60
2023/01/22 01:17:40;;;;;;;16.00;10.53;;;8.20;1.00;;;;;;5074040;28;20089;-60
2023/01/22 01:20:06;;;;;;;15.57;9.23;;;8.20;1.00;;;;;;5074374;28;20422;-62
2023/01/22 01:22:32;;;;;;;11.10;9.40;;;8.20;1.00;;;;;;5074244;28;20016;-61
2023/01/22 01:24:57;;;;;;;11.17;9.20;;;8.20;1.00;;;;;;5073677;28;20097;-60
2023/01/22 01:27:23;;;;;;;11.17;8.50;;;8.10;1.00;;;;;;5073051;28;20386;-60
2023/01/22 01:29:48;;;;;;;16.23;9.77;;;8.20;1.00;;;;;;5073618;28;20020;-60
2023/01/22 01:32:14;;;;;;;13.03;8.63;;;8.20;1.00;;;;;;5073827;28;20020;-60
2023/01/22 01:34:40;;;;;;;11.23;9.30;;;8.10;1.00;;;;;;5073660;28;20490;-60
2023/01/22 01:37:05;;;;;;;12.53;8.10;;;8.20;1.00;;;;;;5072526;28;20032;-60
2023/01/22 01:39:31;;;;;;;12.07;8.53;;;8.20;1.00;;;;;;5073708;28;20017;-60
2023/01/22 01:41:57;;;;;;;11.93;8.67;;;8.00;1.00;;;;;;5073508;28;20021;-60
2023/01/22 01:44:23;;;;;;;11.37;8.27;;;8.10;1.00;;;;;;5073478;28;20032;-60
2023/01/22 01:46:52;;;;;;;13.90;8.27;;;8.10;1.00;;;;;;5073466;28;20040;-60
2023/01/22 01:49:51;;;;;;;11.50;8.70;;;8.10;1.00;;;;;;5073502;28;20009;-60
2023/01/22 01:52:17;;;;;;;9.17;8.03;;;8.10;1.00;;;;;;5055625;28;20032;-60
2023/01/22 01:54:47;;;;;;;11.13;8.70;;;8.10;1.00;;;;;;5073542;28;20123;-60
2023/01/22 01:57:21;;;;;;;9.50;7.80;;;8.10;1.00;;;;;;5073471;28;20351;-60
2023/01/22 01:59:48;;;;;;;19.97;9.23;;;8.10;1.00;;;;;;5073362;28;20069;-60
2023/01/22 02:02:15;;;;;;;9.87;8.33;;;8.10;1.00;;;;;;5073184;28;20024;-60
2023/01/22 02:04:40;;;;;;;11.67;8.30;;;8.10;1.00;;;;;;5072974;28;20410;-60
2023/01/22 02:07:06;;;;;;;11.00;9.00;;;8.10;1.00;;;;;;5072926;28;20056;-60
2023/01/22 02:09:32;;;;;;;13.43;8.93;;;8.10;1.00;;;;;;5073001;28;20128;-60
2023/01/22 02:11:57;;;;;;;13.77;8.73;;;8.10;1.00;;;;;;5072207;28;20138;-60
2023/01/22 02:14:28;;;;;;;11.20;8.03;;;8.10;1.00;;;;;;5069607;28;20039;-60
2023/01/22 02:17:06;;;;;;;11.87;7.73;;;8.10;1.00;;;;;;5070272;28;20382;-60
2023/01/22 02:19:31;;;;;;;9.67;8.20;;;8.00;1.00;;;;;;5072141;28;20031;-60
2023/01/22 02:21:57;;;;;;;11.60;7.47;;;8.10;1.00;;;;;;5072594;28;20099;-60
2023/01/22 02:24:22;;;;;;;9.80;7.20;;;7.90;1.00;;;;;;5072293;28;20033;-60
2023/01/22 02:26:48;;;;;;;11.40;7.20;;;8.00;1.00;;;;;;5071830;28;20032;-60
2023/01/22 02:29:14;;;;;;;7.53;6.63;;;8.10;1.00;;;;;;5064568;28;20028;-60
2023/01/22 02:31:41;;;;;;;9.80;6.70;;;8.10;1.00;;;;;;5072503;28;20060;-60
2023/01/22 02:34:08;;;;;;;10.73;7.77;;;8.10;1.00;;;;;;5072646;28;20028;-60
2023/01/22 02:36:35;;;;;;;10.10;7.00;;;8.10;1.00;;;;;;5072751;28;20078;-60
2023/01/22 02:39:01;;;;;;;10.97;7.97;;;8.10;1.00;;;;;;5072799;28;20422;-60
2023/01/22 02:54:56;;;;;;;11.30;6.83;;;8.10;1.00;;;;;;5057470;28;20074;-60
2023/01/22 02:57:21;;;;;;;8.30;7.50;;;8.10;1.00;;;;;;5061543;28;20021;-60
2023/01/22 02:59:48;;;;;;;8.50;7.47;;;8.10;1.00;;;;;;5070902;28;20370;-60
2023/01/22 03:02:13;;;;;;;10.07;7.60;;;8.20;1.00;;;;;;5072054;28;20412;-60
2023/01/22 03:04:39;;;;;;;10.47;7.70;;;8.20;1.00;;;;;;5071991;28;20040;-60
2023/01/22 03:07:05;;;;;;;13.63;7.90;;;8.20;1.00;;;;;;5072059;28;20064;-60
2023/01/22 03:09:30;;;;;;;10.00;7.60;;;8.20;1.00;;;;;;5072141;28;20017;-60
2023/01/22 03:11:57;;;;;;;13.20;8.53;;;8.20;1.00;;;;;;5072122;28;20025;-60
2023/01/22 03:22:35;;;;;;;9.00;7.50;;;8.20;1.00;;;;;;5072347;28;20122;-60
2023/01/22 03:25:01;;;;;;;11.77;9.13;;;8.20;1.00;;;;;;5071925;28;20406;-60
2023/01/22 03:27:28;;;;;;;10.30;8.53;;;8.20;1.00;;;;;;5072554;28;20029;-60
2023/01/22 03:29:54;;;;;;;11.57;9.50;;;8.20;1.00;;;;;;5074773;28;20032;-60
2023/01/22 03:32:19;;;;;;;12.40;9.33;;;8.20;1.00;;;;;;5076036;28;20162;-60
2023/01/22 03:34:45;;;;;;;12.03;9.97;;;8.20;1.00;;;;;;5076259;28;20466;-60
2023/01/22 03:37:11;;;;;;;14.43;9.17;;;8.20;1.00;;;;;;5076227;28;20047;-60
2023/01/22 03:39:38;;;;;;;13.13;10.23;;;8.10;1.00;;;;;;5075942;28;20032;-60
2023/01/22 03:42:04;;;;;;;15.97;10.33;;;8.20;1.00;;;;;;5075635;28;20077;-60
2023/01/22 03:44:29;;;;;;;14.30;9.83;;;8.20;1.00;;;;;;5075872;28;20115;-60
2023/01/22 03:46:55;;;;;;;13.67;10.27;;;8.20;1.00;;;;;;5075712;28;20145;-60
2023/01/22 03:49:21;;;;;;;13.17;10.10;;;8.20;1.00;;;;;;5075989;28;20013;-61
2023/01/22 03:51:46;;;;;;;13.70;10.07;;;8.20;1.00;;;;;;5075448;28;20035;-61
2023/01/22 03:54:14;;;;;;;14.60;9.67;;;8.20;1.00;;;;;;5074691;28;20035;-61
2023/01/22 03:56:40;;;;;;;13.87;9.53;;;8.10;1.00;;;;;;5075814;28;20052;-60
2023/01/22 03:59:07;;;;;;;15.70;10.43;;;8.20;1.00;;;;;;5075352;28;20118;-60
2023/01/22 04:01:33;;;;;;;14.23;10.00;;;8.10;1.00;;;;;;5075520;28;20063;-60
2023/01/22 04:03:59;;;;;;;11.57;9.00;;;8.10;1.00;;;;;;5075401;28;20382;-60
2023/01/22 04:06:25;;;;;;;12.97;9.83;;;8.00;1.00;;;;;;5075133;28;20052;-59
2023/01/22 04:08:55;;;;;;;10.97;8.90;;;8.00;1.00;;;;;;5075289;28;20375;-60
2023/01/22 04:11:22;;;;;;;12.77;9.27;;;8.00;1.00;;;;;;5075229;28;20030;-59
2023/01/22 04:13:48;;;;;;;14.77;9.40;;;8.00;1.00;;;;;;5075109;28;20091;-59
2023/01/22 04:16:15;;;;;;;11.50;9.47;;;7.90;1.00;;;;;;5075348;28;20029;-60
2023/01/22 04:18:41;;;;;;;10.47;8.83;;;7.90;1.00;;;;;;5075075;28;20485;-61
2023/01/22 04:21:07;;;;;;;12.60;8.63;;;7.90;1.00;;;;;;5075092;28;20029;-60
2023/01/22 04:23:33;;;;;;;14.30;8.50;;;8.00;1.00;;;;;;5073798;28;20024;-61
2023/01/22 04:25:59;;;;;;;11.60;8.47;;;8.00;1.00;;;;;;5074883;28;20393;-60
2023/01/22 04:28:25;;;;;;;10.63;8.00;;;8.00;1.00;;;;;;5074747;28;20031;-61
2023/01/22 04:30:53;;;;;;;9.53;7.47;;;8.00;1.00;;;;;;5074882;28;20054;-62
2023/01/22 04:33:19;;;;;;;10.77;7.60;;;7.90;1.00;;;;;;5075134;28;20367;-59
2023/01/22 04:35:48;;;;;;;10.63;7.23;;;7.90;1.00;;;;;;5074745;28;20031;-60
2023/01/22 04:38:14;;;;;;;9.47;7.13;;;7.70;1.00;;;;;;5074922;28;20025;-59
2023/01/22 04:40:40;;;;;;;7.80;6.77;;;7.80;1.00;;;;;;5073879;28;20040;-59
2023/01/22 04:43:07;;;;;;;9.43;7.30;;;7.90;1.00;;;;;;5073330;28;20059;-59
2023/01/22 04:45:32;;;;;;;11.70;7.53;;;7.70;1.00;;;;;;5073190;28;20037;-60
2023/01/22 04:47:58;;;;;;;8.77;7.07;;;7.90;1.00;;;;;;5074433;28;20082;-59
2023/01/22 04:50:27;;;;;;;10.77;7.10;;;7.90;1.00;;;;;;5074768;28;20402;-59
2023/01/22 04:52:53;;;;;;;10.57;7.30;;;7.90;1.00;;;;;;5074555;28;20032;-60
2023/01/22 04:55:20;;;;;;;9.33;6.47;;;8.00;1.00;;;;;;5074519;28;20071;-60
2023/01/22 04:57:45;;;;;;;9.50;7.13;;;8.00;1.00;;;;;;5074270;28;20047;-59
2023/01/22 05:00:12;;;;;;;9.67;6.67;;;7.90;1.00;;;;;;5074383;28;20029;-60
2023/01/22 05:02:38;;;;;;;8.80;6.30;;;8.00;1.00;;;;;;5072896;28;20104;-59
2023/01/22 05:05:05;;;;;;;9.27;6.37;;;7.90;1.00;;;;;;5073925;28;20068;-60
2023/01/22 05:07:30;;;;;;;13.50;7.53;;;8.00;1.00;;;;;;5074160;28;20514;-63
2023/01/22 05:09:56;;;;;;;11.13;7.17;;;7.90;1.00;;;;;;5072782;28;20065;-59
2023/01/22 05:12:22;;;;;;;9.23;6.90;;;7.90;1.00;;;;;;5074293;28;20054;-60
2023/01/22 05:14:48;;;;;;;8.83;7.27;;;7.80;1.00;;;;;;5074061;28;20116;-60
2023/01/22 05:17:13;;;;;;;10.97;7.33;;;7.90;1.00;;;;;;5060266;28;20023;-60
2023/01/22 05:19:39;;;;;;;10.87;7.73;;;7.90;1.00;;;;;;5073994;28;20027;-60
2023/01/22 05:22:04;;;;;;;8.77;7.60;;;7.90;1.00;;;;;;5073776;28;20376;-59
2023/01/22 05:24:30;;;;;;;11.60;8.13;;;7.90;1.00;;;;;;5073898;28;20017;-59
2023/01/22 05:26:56;;;;;;;13.80;8.67;;;7.80;1.00;;;;;;5073591;28;20040;-60
2023/01/22 05:29:24;;;;;;;12.17;8.20;;;7.70;1.00;;;;;;5073811;28;20024;-60
2023/01/22 05:31:51;;;;;;;11.70;8.40;;;7.70;1.00;;;;;;5073536;28;20214;-60
2023/01/22 05:34:17;;;;;;;10.70;8.20;;;7.70;1.00;;;;;;5074001;28;20024;-60
2023/01/22 05:36:42;;;;;;;12.30;8.17;;;7.70;1.00;;;;;;5073632;28;20398;-60
2023/01/22 05:39:08;;;;;;;13.83;7.80;;;7.70;1.00;;;;;;5073698;28;20044;-60
2023/01/22 05:41:34;;;;;;;10.00;9.00;;;7.60;1.00;;;;;;5064448;28;20061;-59
2023/01/22 05:44:04;;;;;;;9.87;7.83;;;7.50;1.00;;;;;;5069937;28;20013;-59
2023/01/22 05:46:30;;;;;;;10.80;8.33;;;7.40;1.00;;;;;;5073496;28;20104;-60
2023/01/22 05:48:57;;;;;;;10.43;7.73;;;7.50;1.00;;;;;;5072033;28;20115;-59
2023/01/22 05:51:23;;;;;;;12.43;8.57;;;7.60;1.00;;;;;;5073307;28;20028;-59
2023/01/22 05:53:49;;;;;;;13.53;8.40;;;7.60;1.00;;;;;;5073284;28;20497;-60
2023/01/22 05:56:15;;;;;;;9.90;7.70;;;7.60;1.00;;;;;;5073154;28;20087;-60
2023/01/22 05:58:41;;;;;;;12.73;9.20;;;7.50;1.00;;;;;;5073550;28;20039;-59
2023/01/22 06:01:06;;;;;;;15.87;9.77;;;7.50;1.00;;;;;;5072375;28;20013;-59
2023/01/22 06:03:32;;;;;;;12.30;8.37;;;7.50;1.00;;;;;;5071762;28;20024;-60
2023/01/22 06:06:03;;;;;;;10.47;8.67;;;7.50;1.00;;;;;;5072845;28;20048;-59
2023/01/22 06:08:30;;;;;;;11.80;8.67;;;7.50;1.00;;;;;;5072983;28;20485;-59
2023/01/22 06:11:04;;;;;;;10.60;8.17;;;7.50;1.00;;;;;;5072870;28;20477;-59
2023/01/22 06:13:30;;;;;;;15.40;9.18;;;7.60;1.00;;;;;;5073047;28;20024;-59
2023/01/22 06:15:56;;;;;;;12.20;9.20;;;7.50;1.00;;;;;;5072837;28;20021;-59
2023/01/22 06:18:23;;;;;;;11.17;9.17;;;7.60;1.00;;;;;;5073093;28;20035;-59
2023/01/22 06:20:49;;;;;;;11.80;8.77;;;7.60;1.00;;;;;;5072796;28;20423;-59
2023/01/22 06:23:15;;;;;;;12.67;9.27;;;7.60;1.00;;;;;;5069433;28;20462;-59
2023/01/22 06:25:41;;;;;;;12.80;9.37;;;7.70;1.00;;;;;;5072212;28;20119;-59
2023/01/22 06:28:06;;;;;;;11.40;7.83;;;7.70;1.00;;;;;;5072693;28;20515;-59
2023/01/22 06:30:32;;;;;;;10.67;8.30;;;7.60;1.00;;;;;;5072526;28;20036;-59
2023/01/22 06:32:58;;;;;;;12.33;8.77;;;7.60;1.00;;;;;;5071220;28;20032;-60
2023/01/22 06:35:23;;;;;;;12.33;8.60;;;7.50;1.00;;;;;;5072726;28;20028;-59
2023/01/22 06:37:49;;;;;;;11.13;7.67;;;7.70;1.00;;;;;;5072583;28;20390;-59
2023/01/22 06:40:15;;;;;;;13.10;8.20;;;7.70;1.00;;;;;;5072499;28;20032;-60
2023/01/22 06:42:40;;;;;;;9.93;8.13;;;7.60;1.00;;;;;;5072306;28;20420;-60
2023/01/22 06:45:07;;;;;;;11.17;7.70;;;7.60;1.00;;;;;;5069109;28;20029;-60
2023/01/22 06:47:33;;;;;;;12.07;8.97;;;7.60;1.00;;;;;;5066366;28;20036;-60
2023/01/22 06:49:58;;;;;;;13.67;8.40;;;7.40;1.00;;;;;;5072224;28;20119;-60
2023/01/22 06:52:24;;;;;;;11.77;8.23;;;7.60;1.00;;;;;;5072307;28;20511;-60
2023/01/22 06:54:49;;;;;;;8.03;7.23;;;7.60;1.00;;;;;;5072228;28;20576;-59
2023/01/22 06:57:15;;;;;;;10.47;8.13;;;7.60;1.00;;;;;;5072174;28;20025;-60
2023/01/22 06:59:41;;;;;;;12.00;8.43;;;7.70;1.00;;;;;;5072211;28;20110;-59
2023/01/22 07:02:08;;;;;;;10.23;8.70;;;7.70;1.00;;;;;;5071800;28;20031;-60
2023/01/22 07:04:34;;;;;;;12.20;8.87;;;7.80;1.00;;;;;;5071913;28;20559;-60
2023/01/22 07:06:59;;;;;;;9.13;7.83;;;7.80;1.00;;;;;;5072177;28;20100;-59
2023/01/22 07:09:25;;;;;;;10.40;8.40;;;7.70;1.00;;;;;;5072233;28;20043;-60
2023/01/22 07:11:50;;;;;;;11.37;8.43;;;7.70;1.00;;;;;;5072067;28;20016;-59
2023/01/22 07:14:16;;;;;;;10.63;7.90;;;7.70;1.00;;;;;;5072220;28;20071;-60
2023/01/22 07:16:42;;;;;;;13.27;8.63;;;7.70;1.00;;;;;;5072105;28;20050;-60
2023/01/22 07:19:07;;;;;;;14.23;8.70;;;7.70;1.00;;;;;;5072405;28;20389;-61
2023/01/22 07:21:33;;;;;;;10.07;8.40;;;7.70;1.00;;;;;;5072347;28;20063;-59
2023/01/22 07:23:59;;;;;;;10.80;7.53;;;7.70;1.00;;;;;;5070755;28;20389;-60
2023/01/22 07:26:24;;;;;;;10.27;8.27;;;7.70;1.00;;;;;;5072032;28;20037;-59
2023/01/22 07:28:50;;;;;;;9.07;7.73;;;7.60;1.00;;;;;;5072239;28;20021;-59
2023/01/22 07:31:15;;;;;;;9.63;8.20;;;7.60;1.00;;;;;;5070876;28;20033;-60
2023/01/22 07:33:41;;;;;;;10.27;8.10;;;7.70;1.00;;;;;;5070959;28;20073;-60
2023/01/22 07:36:07;;;;;;;11.80;8.10;;;7.60;1.00;;;;;;5072105;28;20021;-60
2023/01/22 07:38:32;;;;;;;11.67;7.73;;;7.70;1.00;;;;;;5072046;28;20024;-60
2023/01/22 07:41:03;;;;;;;14.20;7.63;;;7.80;1.00;;;;;;5071770;28;20731;-60
2023/01/22 07:43:28;;;;;;;11.47;7.70;;;7.80;1.00;;;;;;5071990;28;20029;-60
2023/01/22 07:45:56;;;;;;;9.03;6.87;;;7.90;1.00;;;;;;5070372;28;20040;-60
2023/01/22 07:48:23;;;;;;;8.83;6.00;;;7.90;1.00;;;;;;5071991;28;20017;-60
2023/01/22 07:50:48;;;;;;;9.67;5.90;;;7.90;1.00;;;;;;5071773;28;20390;-60
2023/01/22 07:53:14;;;;;;;7.10;5.70;;;7.90;1.00;;;;;;5070846;28;20023;-60
2023/01/22 07:55:39;;;;;;;9.73;6.17;;;7.90;1.00;;;;;;5071928;28;20033;-60
2023/01/22 07:58:06;;;;;;;9.87;6.43;;;8.00;1.00;;;;;;5071264;28;20432;-60
2023/01/22 08:00:36;;;;;;;7.40;6.40;;;8.10;1.00;;;;;;5071741;28;20024;-60
2023/01/22 08:03:05;;;;;;;8.50;6.10;;;8.10;1.00;;;;;;5070563;28;20486;-60
2023/01/22 08:05:31;;;;;;;10.10;6.07;;;8.10;1.00;;;;;;5071502;28;20501;-60
2023/01/22 08:07:57;;;;;;;7.50;5.77;;;8.10;1.00;;;;;;5071807;28;20029;-60
2023/01/22 08:10:23;;;;;;;8.57;6.63;;;8.20;1.00;;;;;;5071560;28;20028;-60
2023/01/22 08:12:48;;;;;;;9.40;6.10;;;8.30;1.00;;;;;;5071898;28;20025;-60
2023/01/22 08:15:14;;;;;;;8.40;5.40;;;8.30;1.00;;;;;;5072948;28;20021;-60
2023/01/22 08:17:40;;;;;;;6.97;5.90;;;8.40;1.00;;;;;;5073984;28;20037;-61
2023/01/22 08:20:07;;;;;;;7.97;6.50;;;8.40;1.00;;;;;;5075164;28;20029;-60
2023/01/22 08:22:33;;;;;;;8.37;6.57;;;8.40;1.00;;;;;;5061153;28;20028;-60
2023/01/22 08:24:59;;;;;;;8.90;6.57;;;8.30;1.00;;;;;;5075340;28;20039;-60
2023/01/22 08:27:24;;;;;;;7.93;5.70;;;8.40;1.00;;;;;;5075084;28;20052;-60
2023/01/22 08:29:50;;;;;;;8.03;6.90;;;8.40;1.00;;;;;;5066357;28;20478;-61
2023/01/22 08:32:17;;;;;;;9.17;6.93;;;8.50;1.00;;;;;;5086377;28;20338;-59
2023/01/22 08:34:43;;;;;;;8.80;7.00;;;8.50;1.00;;;;;;5074722;28;20054;-62
2023/01/22 08:37:08;;;;;;;9.13;6.77;;;8.50;1.00;;;;;;5074713;28;20029;-60
2023/01/22 08:39:34;;;;;;;10.03;7.63;;;8.50;1.00;;;;;;5074826;28;20100;-61
2023/01/22 08:42:00;;;;;;;9.80;7.03;;;8.50;1.00;;;;;;5070988;28;20058;-60
2023/01/22 08:44:25;;;;;;;9.40;7.70;;;8.40;1.00;;;;;;5074500;28;20009;-70
2023/01/22 08:46:51;;;;;;;12.60;8.13;;;8.20;1.00;;;;;;5065218;28;20064;-55
2023/01/22 08:49:17;;;;;;;11.50;9.77;;;8.10;1.00;;;;;;5070732;28;20027;-61
2023/01/22 08:51:43;;;;;;;10.73;9.47;;;8.10;1.00;;;;;;5074442;28;20085;-61
2023/01/22 08:54:09;;;;;;;10.83;9.10;;;8.30;1.00;;;;;;5073109;28;20060;-62
2023/01/22 08:56:34;;;;;;;12.37;8.97;;;8.50;1.00;;;;;;5072902;28;20055;-62
2023/01/22 08:59:05;;;;;;;13.33;9.97;;;8.50;1.00;;;;;;5074362;28;20021;-62
2023/01/22 09:01:31;;;;;;;12.63;8.67;;;8.60;1.00;;;;;;5072924;28;20511;-61
2023/01/22 09:03:57;;;;;;;11.80;9.77;;;8.60;1.00;;;;;;5074273;28;20025;-62
2023/01/22 09:06:23;;;;;;;10.13;9.10;;;8.60;1.00;;;;;;5073795;28;20056;-62
2023/01/22 09:08:49;;;;;;;12.73;8.93;;;8.70;1.00;;;;;;5074158;28;20029;-62
2023/01/22 09:11:15;;;;;;;11.87;10.07;;;8.60;1.00;;;;;;5074201;28;20029;-62
2023/01/22 09:13:40;;;;;;;12.33;9.47;;;8.50;1.00;;;;;;5074140;28;20031;-62
2023/01/22 09:16:09;;;;;;;10.63;8.30;;;8.60;1.00;;;;;;5073896;28;20028;-62
2023/01/22 09:18:36;;;;;;;13.17;8.73;;;8.60;1.00;;;;;;5074019;28;20024;-62
2023/01/22 09:21:03;;;;;;;10.73;8.57;;;8.60;1.00;;;;;;5073878;28;20028;-62
2023/01/22 09:23:28;;;;;;;12.60;8.63;;;8.60;1.00;;;;;;5073858;28;20096;-63
2023/01/22 09:25:54;;;;;;;11.60;8.00;;;8.70;1.00;;;;;;5073647;28;20128;-62
2023/01/22 09:28:20;;;;;;;11.33;9.63;;;8.80;1.00;;;;;;5073624;28;20040;-62
2023/01/22 09:30:45;;;;;;;11.27;8.93;;;8.80;1.00;;;;;;5073858;28;20025;-63
2023/01/22 09:33:11;;;;;;;10.73;8.93;;;8.70;1.00;;;;;;5073509;28;20485;-63
2023/01/22 09:35:36;;;;;;;34.47;31.07;;;8.80;1.00;;;;;;5073582;28;20021;-62
2023/01/22 09:38:04;;;;;;;16.53;13.40;;;8.90;1.00;;;;;;5073514;28;20119;-62
2023/01/22 09:40:37;;;;;;;11.73;10.53;;;8.90;1.00;;;;;;5073376;28;20381;-64
2023/01/22 09:43:06;;;;;;;13.60;11.20;;;8.80;1.00;;;;;;5060139;28;20024;-63
2023/01/22 09:45:36;;;;;;;12.53;10.63;;;8.70;1.00;;;;;;5067439;28;20033;-64
2023/01/22 09:48:08;;;;;;;14.17;10.40;;;9.00;1.00;;;;;;5073505;28;20385;-64
2023/01/22 09:50:34;;;;;;;13.67;11.33;;;9.10;1.00;;;;;;5065855;28;20596;-64
2023/01/22 09:53:03;;;;;;;12.30;10.37;;;9.10;1.00;;;;;;5073054;28;20027;-64
2023/01/22 09:55:35;;;;;;;11.80;10.50;;;9.20;1.00;;;;;;5073139;28;20030;-64
2023/01/22 09:58:04;;;;;;;14.50;11.50;;;9.20;1.00;;;;;;5071561;28;20024;-63
2023/01/22 10:00:40;;;;;;;13.60;11.10;;;9.30;1.00;;;;;;5068630;28;20081;-63
2023/01/22 10:03:18;;;;;;;14.40;11.13;;;9.20;1.00;;;;;;5070965;28;20028;-63
2023/01/22 10:05:50;;;;;;;12.43;9.83;;;9.20;1.00;;;;;;5071441;28;20040;-64
2023/01/22 10:08:24;;;;;;;14.70;10.60;;;9.30;1.00;;;;;;5072262;28;20500;-63
2023/01/22 10:10:51;;;;;;;12.55;10.65;;;9.10;1.00;;;;;;5067530;28;20394;-63
2023/01/22 10:13:16;;;;;;;15.13;9.93;;;9.30;1.00;;;;;;5072043;28;20381;-63
2023/01/22 10:15:42;;;;;;;13.43;9.30;;;9.30;1.00;;;;;;5077319;28;20044;-63
2023/01/22 10:18:14;;;;;;;11.83;8.97;;;9.30;1.00;;;;;;5073994;28;20025;-63
2023/01/22 10:20:39;;;;;;;9.60;8.40;;;9.40;1.00;;;;;;5072528;28;20028;-64
2023/01/22 10:23:17;;;;;;;10.00;8.77;;;9.40;1.00;;;;;;5072495;28;20035;-64
2023/01/22 10:25:45;;;;;;;9.37;8.17;;;9.50;1.00;;;;;;5072740;28;20032;-63
2023/01/22 10:28:12;;;;;;;9.53;7.83;;;9.40;1.00;;;;;;5072307;28;20025;-64
2023/01/22 10:30:46;;;;;;;8.67;7.27;;;9.40;1.00;;;;;;5072378;28;20077;-63
2023/01/22 10:33:19;;;;;;;10.13;8.23;;;9.40;1.00;;;;;;5072417;28;20102;-64
2023/01/22 10:35:50;;;;;;;6.03;5.07;;;9.60;1.00;;;;;;5072639;28;20250;-63
2023/01/22 10:38:29;;;;;;;7.63;6.50;;;9.50;1.00;;;;;;5070252;28;20355;-63
2023/01/22 10:41:03;;;;;;;6.87;6.00;;;9.70;1.00;;;;;;5072233;28;20032;-63
2023/01/22 10:43:32;;;;;;;7.40;5.47;;;9.40;1.00;;;;;;5072403;28;20024;-63
2023/01/22 10:46:14;;;;;;;5.30;3.67;;;9.40;1.00;;;;;;5070670;28;20486;-63
2023/01/22 10:48:40;;;;;;;7.03;4.97;;;9.40;1.00;;;;;;5072288;28;20021;-63
2023/01/22 10:51:16;;;;;;;5.70;4.97;;;9.30;1.00;;;;;;5071955;28;20090;-63
2023/01/22 10:53:51;;;;;;;9.10;7.23;;;9.30;1.00;;;;;;5072169;28;20123;-63
2023/01/22 10:56:35;;;;;;;9.23;6.27;;;9.40;1.00;;;;;;5071958;28;20095;-62
2023/01/22 10:59:14;;;;;;;7.17;5.03;;;9.50;1.00;;;;;;5072073;28;20398;-64
2023/01/22 11:01:41;;;;;;;5.77;5.27;;;9.60;1.00;;;;;;5058053;28;20071;-63
2023/01/22 11:04:12;;;;;;;6.27;5.53;;;9.50;1.00;;;;;;5071943;28;20048;-62
2023/01/22 11:06:48;;;;;;;8.40;6.67;;;9.50;1.00;;;;;;5072212;28;20443;-64
2023/01/22 11:09:19;;;;;;;9.00;6.90;;;9.30;1.00;;;;;;5072412;28;20036;-63
2023/01/22 11:11:54;;;;;;;6.47;5.77;;;9.40;1.00;;;;;;5072038;28;20024;-63
2023/01/22 11:14:29;;;;;;;8.83;4.97;;;9.60;1.00;;;;;;5072103;28;20039;-63
2023/01/22 11:17:01;;;;;;;7.40;5.17;;;9.20;1.00;;;;;;5070626;28;20032;-64
2023/01/22 11:19:39;;;;;;;6.63;5.73;;;9.40;1.00;;;;;;5072276;28;20421;-64
2023/01/22 11:22:14;;;;;;;6.33;5.70;;;9.70;1.00;;;;;;5058205;28;20036;-63
2023/01/22 11:24:45;;;;;;;;;;;9.80;1.00;;;;;;5072486;28;20051;-63
2023/01/22 11:27:20;;;;;;;7.10;6.30;;;9.80;1.00;;;;;;5058185;28;19912;-62
2023/01/22 11:29:54;;;;;;;7.57;6.80;;;9.90;1.00;;;;;;5071909;28;20025;-64
2023/01/22 11:32:35;;;;;;;6.60;5.70;;;10.10;1.00;;;;;;5057390;28;20107;-64
2023/01/22 11:35:22;;;;;;;6.97;6.00;;;10.10;1.00;;;;;;5071508;28;20424;-63
2023/01/22 11:38:55;;;;;;;7.43;6.13;;;10.20;1.00;;;;;;5066488;28;20028;-63
2023/01/22 11:41:38;;;;;;;7.90;6.40;;;10.20;1.00;;;;;;4966049;28;20026;-62
2023/01/22 11:44:34;;;;;;;9.27;6.50;;;10.20;1.00;;;;;;5071560;28;20072;-63
2023/01/22 11:47:11;;;;;;;6.73;5.83;;;10.40;1.00;;;;;;5071574;28;20079;-63
2023/01/22 11:50:05;;;;;;;6.90;5.63;;;10.60;1.00;;;;;;5073875;28;20017;-64
2023/01/22 11:52:49;;;;;;;6.67;5.63;;;10.30;1.00;;;;;;5075529;28;20021;-64
2023/01/22 11:55:45;;;;;;;7.53;5.47;;;10.40;1.00;;;;;;5075789;28;20082;-64
2023/01/22 11:58:25;;;;;;;;;;;10.40;1.00;;;;;;5075711;28;20065;-64
2023/01/22 12:01:32;;;;;;;11.60;7.03;;;10.50;1.00;;;;;;5075242;28;19905;-64
2023/01/22 12:04:13;;;;;;;6.67;5.93;;;10.10;1.00;;;;;;5066335;28;20027;-64
2023/01/22 12:06:44;;;;;;;6.67;5.93;;;9.90;1.00;;;;;;5075098;28;20044;-64
2023/01/22 12:09:26;;;;;;;8.47;5.87;;;10.00;1.00;;;;;;5075286;28;20096;-64
2023/01/22 12:12:06;;;;;;;7.67;5.50;;;10.10;1.00;;;;;;5061168;28;20029;-63
2023/01/22 12:14:48;;;;;;;7.43;6.03;;;10.20;1.00;;;;;;5075068;28;20090;-63
2023/01/22 12:17:58;;;;;;;8.03;6.50;;;10.10;1.00;;;;;;5075096;28;20105;-63
2023/01/22 12:20:46;;;;;;;8.00;6.50;;;10.00;1.00;;;;;;5061520;28;20016;-63
2023/01/22 12:23:29;;;;;;;8.37;6.57;;;10.20;1.00;;;;;;5075300;28;20394;-64
2023/01/22 12:25:58;;;;;;;7.37;6.07;;;10.30;1.00;;;;;;5074832;28;20035;-64
2023/01/22 12:28:39;;;;;;;7.20;5.50;;;10.50;1.00;;;;;;5074512;28;20021;-63
2023/01/22 12:31:10;;;;;;;8.60;6.27;;;10.50;1.00;;;;;;5073405;28;20024;-64
2023/01/22 12:33:40;;;;;;;6.90;6.07;;;10.40;1.00;;;;;;5074584;28;20036;-64
2023/01/22 12:36:11;;;;;;;8.33;6.97;;;10.10;1.00;;;;;;5074673;28;20104;-64
2023/01/22 12:38:58;;;;;;;8.33;6.77;;;10.30;1.00;;;;;;5074529;28;20016;-64
2023/01/22 12:41:35;;;;;;;9.13;6.93;;;10.20;1.00;;;;;;5074613;28;20501;-64
2023/01/22 12:44:23;;;;;;;8.03;6.67;;;9.90;1.00;;;;;;5074485;28;20025;-64
2023/01/22 12:47:00;;;;;;;7.30;5.90;;;9.90;1.00;;;;;;5073075;28;20075;-64
2023/01/22 12:49:26;;;;;;;6.37;5.77;;;10.20;1.00;;;;;;5074198;28;20036;-64
2023/01/22 12:51:54;;;;;;;7.00;5.87;;;10.00;1.00;;;;;;5074381;28;20024;-64
2023/01/22 12:54:29;;;;;;;6.60;5.07;;;10.20;1.00;;;;;;5074369;28;20036;-64
2023/01/22 12:57:19;;;;;;;6.63;5.87;;;10.20;1.00;;;;;;5074245;28;20024;-64
2023/01/22 12:59:49;;;;;;;7.57;6.33;;;10.20;1.00;;;;;;5052288;28;20111;-63
2023/01/22 13:02:30;;;;;;;6.67;5.53;;;10.40;1.00;;;;;;5073574;28;20036;-64
2023/01/22 13:05:13;;;;;;;8.90;6.57;;;10.60;1.00;;;;;;5071456;28;20059;-64
2023/01/22 13:07:40;;;;;;;6.67;5.30;;;10.60;1.00;;;;;;5067903;28;20044;-63
2023/01/22 13:10:25;;;;;;;7.67;5.70;;;10.60;1.00;;;;;;5074038;28;20016;-64
2023/01/22 13:13:02;;;;;;;;;;;10.60;1.00;;;;;;5074435;28;20426;-64
2023/01/22 13:15:31;;;;;;;7.93;6.57;;;10.80;1.00;;;;;;5074074;28;19912;-64
2023/01/22 13:18:00;;;;;;;9.00;6.30;;;10.90;1.00;;;;;;5073645;28;20119;-64
2023/01/22 13:20:28;;;;;;;7.80;5.57;;;10.90;1.00;;;;;;5073700;28;20021;-64
2023/01/22 13:22:54;;;;;;;6.40;5.13;;;10.80;1.00;;;;;;5073478;28;20060;-64
2023/01/22 13:25:26;;;;;;;7.15;5.60;;;10.90;1.00;;;;;;5073500;28;20099;-64
2023/01/22 13:27:52;;;;;;;6.88;6.07;;;10.70;1.00;;;;;;5073340;28;20169;-64
2023/01/22 13:30:27;;;;;;;6.55;4.97;;;10.70;1.00;;;;;;5073363;28;20025;-64
2023/01/22 13:33:09;;;;;;;6.82;5.78;;;10.50;1.00;;;;;;5073326;28;20032;-64